createdAt,value
2023-05-05T00:00:03.479Z,11.00
2023-05-05T00:01:04.029Z,11.00
2023-05-05T00:02:03.680Z,11.00
2023-05-05T00:03:03.468Z,11.00
2023-05-05T00:04:04.133Z,11.00
2023-05-05T00:06:03.317Z,10.90
2023-05-05T00:07:03.869Z,10.90
2023-05-05T00:08:06.039Z,10.90
2023-05-05T00:09:06.135Z,10.90
2023-05-05T00:10:06.647Z,10.90
2023-05-05T00:11:06.115Z,10.90
2023-05-05T00:12:06.101Z,10.90
2023-05-05T00:13:03.550Z,10.80
2023-05-05T00:14:03.331Z,10.90
2023-05-05T00:15:03.868Z,10.80
2023-05-05T00:16:04.028Z,10.80
2023-05-05T00:18:03.329Z,10.80
2023-05-05T00:20:03.729Z,10.80
2023-05-05T00:21:11.098Z,10.70
2023-05-05T00:22:06.184Z,10.80
2023-05-05T00:23:03.590Z,10.70
2023-05-05T00:24:03.540Z,10.70
2023-05-05T00:25:05.908Z,10.70
2023-05-05T00:26:03.513Z,10.70
2023-05-05T00:27:03.208Z,10.70
2023-05-05T00:28:03.859Z,10.70
2023-05-05T00:29:03.558Z,10.70
2023-05-05T00:30:03.210Z,10.70
2023-05-05T00:31:03.837Z,10.60
2023-05-05T00:33:04.223Z,10.60
2023-05-05T00:35:03.715Z,10.70
2023-05-05T00:36:03.396Z,10.70
2023-05-05T00:37:03.960Z,10.70
2023-05-05T00:38:06.087Z,10.60
2023-05-05T00:39:06.209Z,10.70
2023-05-05T00:40:03.641Z,10.70
2023-05-05T00:41:03.207Z,10.70
2023-05-05T00:42:03.760Z,10.70
2023-05-05T00:44:06.501Z,10.70
2023-05-05T00:45:04.040Z,10.70
2023-05-05T00:46:03.678Z,10.70
2023-05-05T00:47:05.821Z,10.70
2023-05-05T00:48:05.798Z,10.70
2023-05-05T00:49:03.678Z,10.70
2023-05-05T00:50:03.282Z,10.70
2023-05-05T00:51:03.810Z,10.70
2023-05-05T00:53:03.856Z,10.70
2023-05-05T00:54:06.059Z,10.70
2023-05-05T00:55:06.085Z,10.70
2023-05-05T00:56:03.527Z,10.70
2023-05-05T00:57:03.125Z,10.80
2023-05-05T00:58:03.689Z,10.70
2023-05-05T00:59:05.876Z,10.70
2023-05-05T01:00:05.975Z,10.70
2023-05-05T01:01:04.228Z,10.70
2023-05-05T01:02:03.848Z,10.70
2023-05-05T01:03:08.707Z,10.70
2023-05-05T01:04:05.893Z,10.60
2023-05-05T01:05:05.940Z,10.60
2023-05-05T01:06:03.456Z,10.70
2023-05-05T01:07:06.634Z,10.70
2023-05-05T01:08:04.112Z,10.70
2023-05-05T01:09:06.186Z,10.70
2023-05-05T01:10:15.533Z,10.60
2023-05-05T01:11:04.182Z,10.70
2023-05-05T01:12:06.262Z,10.70
2023-05-05T01:13:03.794Z,10.70
2023-05-05T01:14:03.509Z,10.70
2023-05-05T01:15:05.747Z,10.70
2023-05-05T01:16:05.710Z,10.70
2023-05-05T01:17:06.575Z,10.70
2023-05-05T01:18:04.047Z,10.70
2023-05-05T01:19:03.642Z,10.70
2023-05-05T01:20:03.837Z,10.70
2023-05-05T01:21:06.045Z,10.70
2023-05-05T01:22:06.814Z,10.70
2023-05-05T01:23:03.272Z,10.70
2023-05-05T01:24:06.376Z,10.70
2023-05-05T01:25:03.867Z,10.60
2023-05-05T01:26:03.472Z,10.70
2023-05-05T01:27:06.630Z,10.70
2023-05-05T01:29:03.737Z,10.70
2023-05-05T01:30:05.940Z,10.70
2023-05-05T01:31:03.896Z,10.60
2023-05-05T01:32:03.626Z,10.60
2023-05-05T01:33:05.951Z,10.60
2023-05-05T01:34:03.465Z,10.60
2023-05-05T01:35:04.202Z,10.60
2023-05-05T01:36:06.372Z,10.60
2023-05-05T01:37:03.851Z,10.50
2023-05-05T01:38:03.428Z,10.60
2023-05-05T01:39:04.114Z,10.50
2023-05-05T01:40:06.470Z,10.50
2023-05-05T01:41:03.383Z,10.50
2023-05-05T01:42:06.496Z,10.50
2023-05-05T01:43:06.431Z,10.50
2023-05-05T01:44:06.484Z,10.50
2023-05-05T01:45:06.498Z,10.50
2023-05-05T01:46:03.908Z,10.40
2023-05-05T01:47:03.498Z,10.50
2023-05-05T01:48:03.252Z,10.40
2023-05-05T01:49:03.232Z,10.50
2023-05-05T01:50:03.841Z,10.50
2023-05-05T01:51:03.541Z,10.40
2023-05-05T01:52:09.243Z,10.40
2023-05-05T01:53:08.739Z,10.40
2023-05-05T01:55:08.879Z,10.40
2023-05-05T01:56:03.355Z,10.30
2023-05-05T01:57:03.978Z,10.40
2023-05-05T01:58:03.779Z,10.30
2023-05-05T01:59:03.773Z,10.30
2023-05-05T02:00:06.073Z,10.30
2023-05-05T02:01:03.896Z,10.30
2023-05-05T02:02:06.120Z,10.30
2023-05-05T02:03:03.683Z,10.30
2023-05-05T02:04:03.335Z,10.30
2023-05-05T02:05:03.895Z,10.30
2023-05-05T02:06:03.446Z,10.30
2023-05-05T02:07:08.449Z,10.20
2023-05-05T02:08:03.877Z,10.20
2023-05-05T02:09:05.955Z,10.10
2023-05-05T02:10:06.030Z,10.10
2023-05-05T02:11:06.743Z,10.10
2023-05-05T02:13:03.759Z,10.10
2023-05-05T02:14:03.698Z,10.10
2023-05-05T02:15:04.113Z,10.10
2023-05-05T02:17:03.196Z,10.10
2023-05-05T02:18:06.550Z,10.10
2023-05-05T02:19:08.371Z,10.10
2023-05-05T02:20:06.415Z,10.10
2023-05-05T02:21:03.940Z,10.20
2023-05-05T02:22:03.703Z,10.20
2023-05-05T02:23:03.324Z,10.20
2023-05-05T02:24:06.448Z,10.30
2023-05-05T02:25:03.995Z,10.30
2023-05-05T02:26:08.633Z,10.30
2023-05-05T02:27:09.152Z,10.30
2023-05-05T02:28:03.615Z,10.30
2023-05-05T02:29:04.130Z,10.30
2023-05-05T02:30:06.603Z,10.40
2023-05-05T02:31:08.625Z,10.40
2023-05-05T02:32:03.167Z,10.40
2023-05-05T02:33:03.709Z,10.40
2023-05-05T02:34:05.845Z,10.40
2023-05-05T02:35:03.304Z,10.40
2023-05-05T02:36:06.430Z,10.50
2023-05-05T02:37:06.541Z,10.50
2023-05-05T02:38:03.943Z,10.50
2023-05-05T02:39:03.846Z,10.50
2023-05-05T02:41:04.018Z,10.50
2023-05-05T02:42:03.954Z,10.60
2023-05-05T02:43:03.520Z,10.60
2023-05-05T02:44:03.243Z,10.60
2023-05-05T02:45:03.921Z,10.60
2023-05-05T02:46:08.602Z,10.70
2023-05-05T02:47:04.148Z,10.70
2023-05-05T02:48:03.766Z,10.70
2023-05-05T02:49:03.655Z,10.70
2023-05-05T02:50:03.271Z,10.70
2023-05-05T02:51:06.403Z,10.80
2023-05-05T02:52:03.837Z,10.70
2023-05-05T02:53:05.912Z,10.80
2023-05-05T02:54:03.350Z,10.80
2023-05-05T02:55:03.884Z,10.80
2023-05-05T02:57:05.839Z,10.80
2023-05-05T02:58:05.888Z,10.90
2023-05-05T02:59:03.297Z,10.80
2023-05-05T03:00:06.769Z,10.80
2023-05-05T03:01:06.373Z,10.90
2023-05-05T03:02:03.922Z,10.90
2023-05-05T03:03:03.533Z,10.90
2023-05-05T03:04:03.113Z,10.90
2023-05-05T03:05:03.751Z,10.90
2023-05-05T03:06:03.385Z,10.90
2023-05-05T03:07:03.957Z,10.90
2023-05-05T03:08:06.030Z,10.90
2023-05-05T03:09:03.429Z,10.90
2023-05-05T03:10:03.954Z,10.90
2023-05-05T03:11:03.627Z,10.90
2023-05-05T03:12:03.323Z,11.00
2023-05-05T03:13:06.632Z,10.90
2023-05-05T03:15:03.968Z,10.90
2023-05-05T03:16:06.099Z,10.90
2023-05-05T03:17:03.782Z,10.90
2023-05-05T03:18:03.474Z,10.90
2023-05-05T03:19:04.073Z,10.90
2023-05-05T03:20:03.994Z,10.90
2023-05-05T03:21:06.082Z,10.90
2023-05-05T03:22:03.889Z,10.90
2023-05-05T03:23:03.637Z,10.90
2023-05-05T03:25:06.407Z,10.90
2023-05-05T03:26:03.823Z,11.00
2023-05-05T03:27:03.405Z,11.00
2023-05-05T03:28:03.410Z,11.00
2023-05-05T03:29:04.076Z,11.10
2023-05-05T03:30:03.590Z,11.10
2023-05-05T03:31:03.175Z,11.10
2023-05-05T03:32:03.840Z,11.10
2023-05-05T03:34:03.255Z,11.10
2023-05-05T03:35:06.320Z,11.20
2023-05-05T03:36:03.732Z,11.20
2023-05-05T03:37:03.359Z,11.20
2023-05-05T03:38:04.040Z,11.20
2023-05-05T03:39:03.921Z,11.20
2023-05-05T03:40:03.501Z,11.20
2023-05-05T03:41:04.008Z,11.20
2023-05-05T03:42:03.555Z,11.20
2023-05-05T03:43:03.157Z,11.20
2023-05-05T03:44:06.230Z,11.20
2023-05-05T03:45:03.760Z,11.20
2023-05-05T03:46:05.949Z,11.20
2023-05-05T03:47:03.464Z,11.20
2023-05-05T03:48:04.094Z,11.20
2023-05-05T03:49:03.768Z,11.20
2023-05-05T03:50:05.943Z,11.10
2023-05-05T03:51:08.704Z,11.10
2023-05-05T03:52:03.243Z,11.10
2023-05-05T03:53:06.429Z,11.10
2023-05-05T03:54:06.543Z,11.10
2023-05-05T03:55:03.982Z,11.00
2023-05-05T03:56:03.680Z,11.00
2023-05-05T03:58:09.046Z,10.90
2023-05-05T03:59:06.124Z,10.90
2023-05-05T04:00:06.308Z,10.90
2023-05-05T04:01:04.137Z,10.90
2023-05-05T04:02:06.359Z,10.80
2023-05-05T04:03:04.051Z,10.80
2023-05-05T04:04:06.233Z,10.80
2023-05-05T04:05:04.043Z,10.80
2023-05-05T04:06:03.555Z,10.80
2023-05-05T04:07:03.166Z,10.80
2023-05-05T04:08:03.756Z,10.80
2023-05-05T04:09:05.996Z,10.70
2023-05-05T04:10:03.486Z,10.70
2023-05-05T04:11:04.101Z,10.70
2023-05-05T04:12:06.144Z,10.80
2023-05-05T04:13:03.691Z,10.80
2023-05-05T04:14:05.909Z,10.90
2023-05-05T04:15:05.993Z,10.90
2023-05-05T04:16:03.577Z,10.80
2023-05-05T04:17:05.782Z,10.90
2023-05-05T04:18:05.802Z,10.90
2023-05-05T04:19:05.960Z,10.90
2023-05-05T04:20:04.114Z,10.90
2023-05-05T04:21:06.234Z,11.00
2023-05-05T04:22:06.231Z,11.00
2023-05-05T04:23:08.737Z,11.00
2023-05-05T04:24:08.270Z,11.00
2023-05-05T04:25:03.960Z,11.00
2023-05-05T04:27:06.509Z,11.10
2023-05-05T04:28:03.964Z,11.10
2023-05-05T04:29:04.027Z,11.10
2023-05-05T04:30:03.654Z,11.20
2023-05-05T04:31:03.397Z,11.20
2023-05-05T04:32:04.117Z,11.30
2023-05-05T04:34:03.349Z,11.40
2023-05-05T04:35:04.147Z,11.50
2023-05-05T04:36:06.360Z,11.70
2023-05-05T04:37:03.960Z,11.60
2023-05-05T04:38:03.641Z,11.70
2023-05-05T04:39:05.792Z,11.70
2023-05-05T04:40:08.154Z,11.80
2023-05-05T04:41:06.645Z,11.90
2023-05-05T04:42:06.677Z,12.00
2023-05-05T04:44:03.160Z,12.00
2023-05-05T04:45:06.427Z,12.10
2023-05-05T04:46:06.925Z,12.10
2023-05-05T04:47:13.969Z,12.10
2023-05-05T04:48:03.855Z,12.10
2023-05-05T04:49:06.089Z,12.20
2023-05-05T04:50:03.635Z,12.10
2023-05-05T04:51:05.810Z,12.10
2023-05-05T04:52:03.304Z,12.10
2023-05-05T04:53:06.592Z,12.20
2023-05-05T04:54:04.182Z,12.20
2023-05-05T04:55:03.772Z,12.30
2023-05-05T04:56:03.422Z,12.30
2023-05-05T04:57:06.667Z,12.40
2023-05-05T04:58:08.176Z,12.50
2023-05-05T04:59:06.209Z,12.60
2023-05-05T05:00:06.290Z,12.90
2023-05-05T05:01:06.595Z,13.20
2023-05-05T05:02:04.131Z,13.10
2023-05-05T05:03:06.417Z,13.70
2023-05-05T05:04:04.156Z,13.70
2023-05-05T05:05:03.836Z,13.90
2023-05-05T05:06:03.749Z,14.20
2023-05-05T05:07:05.854Z,14.70
2023-05-05T05:08:03.329Z,14.70
2023-05-05T05:09:06.549Z,15.10
2023-05-05T05:10:04.101Z,15.00
2023-05-05T05:11:03.786Z,15.30
2023-05-05T05:12:03.792Z,15.50
2023-05-05T05:13:03.436Z,15.60
2023-05-05T05:14:05.703Z,16.00
2023-05-05T05:15:03.214Z,16.00
2023-05-05T05:16:03.905Z,16.20
2023-05-05T05:17:03.672Z,16.40
2023-05-05T05:18:08.269Z,16.70
2023-05-05T05:19:06.327Z,16.90
2023-05-05T05:20:06.517Z,17.10
2023-05-05T05:22:03.832Z,17.30
2023-05-05T05:24:03.575Z,17.60
2023-05-05T05:25:03.234Z,17.80
2023-05-05T05:26:04.121Z,18.00
2023-05-05T05:28:09.952Z,18.20
2023-05-05T05:29:05.981Z,18.50
2023-05-05T05:30:08.633Z,18.60
2023-05-05T05:31:03.541Z,18.70
2023-05-05T05:32:04.250Z,18.80
2023-05-05T05:33:04.078Z,18.90
2023-05-05T05:34:04.158Z,19.00
2023-05-05T05:36:07.242Z,19.10
2023-05-05T05:37:06.011Z,19.00
2023-05-05T05:38:03.468Z,19.00
2023-05-05T05:39:06.458Z,18.90
2023-05-05T05:40:03.953Z,18.80
2023-05-05T05:41:03.925Z,18.80
2023-05-05T05:42:03.562Z,18.80
2023-05-05T05:43:05.944Z,18.90
2023-05-05T05:44:09.606Z,19.00
2023-05-05T05:45:04.101Z,19.00
2023-05-05T05:47:05.698Z,19.20
2023-05-05T05:48:03.223Z,19.20
2023-05-05T05:49:06.398Z,19.50
2023-05-05T05:50:03.307Z,19.40
2023-05-05T05:51:03.930Z,19.60
2023-05-05T05:53:03.205Z,19.80
2023-05-05T05:54:03.872Z,19.90
2023-05-05T05:55:08.642Z,19.90
2023-05-05T05:56:04.191Z,19.90
2023-05-05T05:57:03.794Z,20.00
2023-05-05T05:58:03.466Z,20.00
2023-05-05T05:59:06.608Z,20.10
2023-05-05T06:00:03.956Z,20.10
2023-05-05T06:01:06.176Z,20.20
2023-05-05T06:02:08.328Z,20.30
2023-05-05T06:03:06.661Z,20.40
2023-05-05T06:05:06.220Z,20.50
2023-05-05T06:06:03.675Z,20.50
2023-05-05T06:07:05.883Z,20.70
2023-05-05T06:08:05.996Z,20.80
2023-05-05T06:09:03.417Z,20.80
2023-05-05T06:10:14.942Z,20.80
2023-05-05T06:11:05.861Z,21.00
2023-05-05T06:12:06.042Z,21.10
2023-05-05T06:13:03.593Z,21.10
2023-05-05T06:14:03.270Z,21.20
2023-05-05T06:15:03.810Z,21.20
2023-05-05T06:17:03.994Z,21.40
2023-05-05T06:18:06.159Z,21.60
2023-05-05T06:19:03.813Z,21.50
2023-05-05T06:20:03.506Z,21.60
2023-05-05T06:22:03.857Z,21.80
2023-05-05T06:23:03.566Z,21.90
2023-05-05T06:24:05.854Z,21.90
2023-05-05T06:25:03.202Z,21.80
2023-05-05T06:26:06.422Z,21.90
2023-05-05T06:27:03.868Z,21.80
2023-05-05T06:28:03.784Z,21.90
2023-05-05T06:29:05.972Z,22.00
2023-05-05T06:30:08.741Z,22.00
2023-05-05T06:31:09.042Z,22.10
2023-05-05T06:32:08.592Z,22.10
2023-05-05T06:33:06.687Z,22.20
2023-05-05T06:35:03.929Z,22.30
2023-05-05T06:36:06.137Z,22.30
2023-05-05T06:37:03.668Z,22.40
2023-05-05T06:38:03.261Z,22.40
2023-05-05T06:39:03.983Z,22.40
2023-05-05T06:40:08.767Z,22.50
2023-05-05T06:41:03.827Z,22.50
2023-05-05T06:42:03.493Z,22.50
2023-05-05T06:43:06.638Z,22.60
2023-05-05T06:44:04.097Z,22.60
2023-05-05T06:45:03.590Z,22.60
2023-05-05T06:46:05.750Z,22.60
2023-05-05T06:47:08.313Z,22.60
2023-05-05T06:48:03.975Z,23.30
2023-05-05T06:49:03.752Z,22.60
2023-05-05T06:50:06.179Z,22.60
2023-05-05T06:51:03.504Z,22.50
2023-05-05T06:53:06.348Z,22.50
2023-05-05T06:54:03.898Z,22.40
2023-05-05T06:55:03.585Z,22.50
2023-05-05T06:56:05.724Z,22.50
2023-05-05T06:57:03.210Z,22.40
2023-05-05T06:58:06.285Z,22.50
2023-05-05T06:59:03.823Z,22.50
2023-05-05T07:00:03.523Z,22.60
2023-05-05T07:02:06.358Z,22.60
2023-05-05T07:03:04.059Z,22.60
2023-05-05T07:04:03.867Z,22.70
2023-05-05T07:06:04.097Z,22.70
2023-05-05T07:07:03.770Z,22.70
2023-05-05T07:08:08.629Z,22.70
2023-05-05T07:09:04.163Z,22.70
2023-05-05T07:10:03.852Z,22.70
2023-05-05T07:11:03.625Z,22.60
2023-05-05T07:12:03.274Z,22.60
2023-05-05T07:13:03.919Z,22.70
2023-05-05T07:14:03.803Z,22.40
2023-05-05T07:15:09.536Z,22.40
2023-05-05T07:16:08.422Z,22.40
2023-05-05T07:17:04.147Z,22.30
2023-05-05T07:18:03.954Z,22.40
2023-05-05T07:19:08.864Z,22.30
2023-05-05T07:20:03.773Z,22.30
2023-05-05T07:21:06.003Z,22.40
2023-05-05T07:22:03.436Z,22.40
2023-05-05T07:23:04.118Z,22.40
2023-05-05T07:24:03.867Z,22.50
2023-05-05T07:25:06.070Z,22.60
2023-05-05T07:26:03.542Z,22.60
2023-05-05T07:27:10.924Z,22.70
2023-05-05T07:28:03.417Z,22.70
2023-05-05T07:29:03.938Z,22.80
2023-05-05T07:30:06.624Z,22.80
2023-05-05T07:31:03.576Z,22.80
2023-05-05T07:32:03.229Z,22.80
2023-05-05T07:33:06.668Z,22.90
2023-05-05T07:34:05.717Z,22.90
2023-05-05T07:35:05.916Z,22.90
2023-05-05T07:36:06.033Z,22.90
2023-05-05T07:37:06.162Z,23.00
2023-05-05T07:38:06.240Z,23.00
2023-05-05T07:39:03.986Z,23.00
2023-05-05T07:40:03.553Z,23.00
2023-05-05T07:41:05.689Z,23.00
2023-05-05T07:42:03.383Z,23.00
2023-05-05T07:43:09.082Z,23.00
2023-05-05T07:44:11.191Z,22.90
2023-05-05T07:45:03.748Z,22.90
2023-05-05T07:46:03.416Z,22.90
2023-05-05T07:47:06.646Z,22.90
2023-05-05T07:48:04.135Z,22.80
2023-05-05T07:49:06.473Z,22.80
2023-05-05T07:50:09.356Z,22.80
2023-05-05T07:51:08.597Z,22.80
2023-05-05T07:52:04.150Z,22.80
2023-05-05T07:53:13.481Z,22.80
2023-05-05T07:54:08.601Z,22.70
2023-05-05T07:55:04.162Z,22.70
2023-05-05T07:56:03.887Z,22.70
2023-05-05T07:57:03.524Z,22.70
2023-05-05T07:58:08.501Z,22.70
2023-05-05T07:59:04.010Z,22.70
2023-05-05T08:00:06.452Z,22.60
2023-05-05T08:01:03.569Z,22.60
2023-05-05T08:02:03.195Z,22.60
2023-05-05T08:03:03.975Z,22.60
2023-05-05T08:04:04.031Z,22.60
2023-05-05T08:05:06.935Z,22.70
2023-05-05T08:06:09.161Z,22.70
2023-05-05T08:07:06.240Z,22.70
2023-05-05T08:08:06.309Z,22.70
2023-05-05T08:09:03.830Z,22.70
2023-05-05T08:10:03.402Z,22.80
2023-05-05T08:11:04.134Z,22.80
2023-05-05T08:12:06.259Z,22.90
2023-05-05T08:13:06.318Z,22.90
2023-05-05T08:14:06.481Z,22.90
2023-05-05T08:15:06.745Z,22.90
2023-05-05T08:16:04.140Z,22.90
2023-05-05T08:17:03.885Z,22.80
2023-05-05T08:19:12.042Z,23.00
2023-05-05T08:20:03.456Z,22.90
2023-05-05T08:21:04.098Z,23.00
2023-05-05T08:22:08.785Z,23.20
2023-05-05T08:23:05.814Z,23.00
2023-05-05T08:24:03.376Z,23.00
2023-05-05T08:25:04.034Z,23.00
2023-05-05T08:26:06.354Z,23.00
2023-05-05T08:27:08.894Z,23.00
2023-05-05T08:28:03.361Z,23.00
2023-05-05T08:29:06.479Z,23.10
2023-05-05T08:30:06.615Z,23.10
2023-05-05T08:31:06.828Z,23.10
2023-05-05T08:33:04.269Z,23.10
2023-05-05T08:34:08.981Z,23.00
2023-05-05T08:35:06.131Z,23.00
2023-05-05T08:36:06.018Z,23.00
2023-05-05T08:37:03.550Z,23.00
2023-05-05T08:38:04.205Z,23.00
2023-05-05T08:39:03.921Z,23.00
2023-05-05T08:40:08.332Z,23.00
2023-05-05T08:41:08.971Z,22.90
2023-05-05T08:42:03.394Z,22.90
2023-05-05T08:43:06.501Z,22.80
2023-05-05T08:44:04.106Z,22.90
2023-05-05T08:45:03.776Z,23.00
2023-05-05T08:46:05.922Z,22.90
2023-05-05T08:47:05.977Z,22.80
2023-05-05T08:48:03.634Z,22.90
2023-05-05T08:49:03.497Z,22.90
2023-05-05T08:50:04.143Z,22.80
2023-05-05T08:51:05.493Z,22.50
2023-05-05T08:53:03.923Z,22.90
2023-05-05T08:54:06.272Z,23.00
2023-05-05T08:55:03.850Z,23.00
2023-05-05T08:56:03.497Z,23.00
2023-05-05T08:57:06.693Z,22.90
2023-05-05T08:59:03.835Z,23.00
2023-05-05T09:00:03.421Z,22.90
2023-05-05T09:01:04.097Z,22.90
2023-05-05T09:02:06.336Z,22.90
2023-05-05T09:03:06.592Z,22.90
2023-05-05T09:04:03.522Z,22.90
2023-05-05T09:05:03.181Z,22.80
2023-05-05T09:06:03.769Z,22.90
2023-05-05T09:07:06.029Z,22.90
2023-05-05T09:08:03.652Z,22.90
2023-05-05T09:09:03.236Z,23.00
2023-05-05T09:10:03.894Z,23.00
2023-05-05T09:11:06.114Z,23.10
2023-05-05T09:12:03.751Z,23.00
2023-05-05T09:13:03.495Z,23.10
2023-05-05T09:15:03.742Z,23.20
2023-05-05T09:16:03.372Z,23.20
2023-05-05T09:17:06.790Z,23.30
2023-05-05T09:18:03.525Z,23.30
2023-05-05T09:19:03.761Z,23.30
2023-05-05T09:21:04.088Z,23.50
2023-05-05T09:23:03.469Z,23.60
2023-05-05T09:24:08.043Z,23.60
2023-05-05T09:25:06.593Z,23.70
2023-05-05T09:26:03.802Z,23.60
2023-05-05T09:27:08.437Z,23.60
2023-05-05T09:28:12.198Z,23.60
2023-05-05T09:29:06.181Z,23.70
2023-05-05T09:30:06.167Z,23.70
2023-05-05T09:31:03.784Z,23.70
2023-05-05T09:32:09.104Z,23.70
2023-05-05T09:33:06.310Z,23.70
2023-05-05T09:34:06.326Z,23.70
2023-05-05T09:35:03.949Z,23.60
2023-05-05T09:36:06.255Z,23.60
2023-05-05T09:37:06.521Z,23.60
2023-05-05T09:38:04.121Z,23.60
2023-05-05T09:39:03.865Z,23.60
2023-05-05T09:40:06.189Z,23.50
2023-05-05T09:41:06.236Z,23.50
2023-05-05T09:42:03.943Z,23.50
2023-05-05T09:43:03.590Z,23.60
2023-05-05T09:44:03.187Z,23.60
2023-05-05T09:45:03.839Z,23.60
2023-05-05T09:46:06.248Z,23.80
2023-05-05T09:47:07.299Z,23.70
2023-05-05T09:48:03.484Z,23.80
2023-05-05T09:49:04.107Z,23.80
2023-05-05T09:50:03.720Z,23.90
2023-05-05T09:51:03.439Z,23.90
2023-05-05T09:52:06.618Z,24.00
2023-05-05T09:53:06.620Z,24.10
2023-05-05T09:54:04.087Z,24.10
2023-05-05T09:55:04.110Z,24.10
2023-05-05T09:57:03.594Z,11.30
2023-05-05T09:58:03.306Z,24.10
2023-05-05T09:59:06.673Z,24.10
2023-05-05T10:00:05.756Z,24.00
2023-05-05T10:01:03.572Z,24.10
2023-05-05T10:02:03.250Z,24.00
2023-05-05T10:03:03.935Z,24.10
2023-05-05T10:04:06.129Z,24.20
2023-05-05T10:05:06.338Z,24.20
2023-05-05T10:06:04.116Z,24.20
2023-05-05T10:07:03.815Z,24.20
2023-05-05T10:08:06.072Z,24.30
2023-05-05T10:09:03.597Z,24.10
2023-05-05T10:10:03.291Z,24.30
2023-05-05T10:11:06.529Z,24.30
2023-05-05T10:13:06.300Z,24.30
2023-05-05T10:14:06.645Z,24.40
2023-05-05T10:16:06.478Z,24.40
2023-05-05T10:17:06.730Z,24.30
2023-05-05T10:19:06.416Z,24.40
2023-05-05T10:20:04.038Z,24.40
2023-05-05T10:21:03.739Z,24.50
2023-05-05T10:23:06.579Z,24.50
2023-05-05T10:24:04.249Z,24.50
2023-05-05T10:25:03.950Z,24.50
2023-05-05T10:27:05.973Z,24.60
2023-05-05T10:28:05.965Z,24.60
2023-05-05T10:29:03.633Z,24.60
2023-05-05T10:30:06.024Z,24.70
2023-05-05T10:31:09.972Z,24.70
2023-05-05T10:32:12.171Z,24.70
2023-05-05T10:33:18.470Z,24.70
2023-05-05T10:34:03.714Z,24.70
2023-05-05T10:35:03.886Z,24.70
2023-05-05T10:36:06.231Z,24.70
2023-05-05T10:37:03.730Z,24.70
2023-05-05T10:38:03.474Z,24.70
2023-05-05T10:39:04.164Z,24.70
2023-05-05T10:40:06.845Z,24.70
2023-05-05T10:41:05.776Z,24.60
2023-05-05T10:42:03.219Z,24.60
2023-05-05T10:43:06.351Z,24.60
2023-05-05T10:44:04.658Z,24.60
2023-05-05T10:45:08.482Z,24.50
2023-05-05T10:46:04.173Z,24.50
2023-05-05T10:47:08.909Z,24.40
2023-05-05T10:48:03.561Z,24.40
2023-05-05T10:49:03.290Z,24.40
2023-05-05T10:50:03.896Z,24.40
2023-05-05T10:51:03.619Z,24.30
2023-05-05T10:52:05.910Z,24.40
2023-05-05T10:53:05.998Z,24.40
2023-05-05T10:54:03.574Z,24.40
2023-05-05T10:55:03.189Z,24.40
2023-05-05T10:56:06.283Z,24.50
2023-05-05T10:57:03.680Z,24.50
2023-05-05T10:59:06.368Z,24.60
2023-05-05T11:00:04.204Z,24.40
2023-05-05T11:01:03.966Z,24.60
2023-05-05T11:02:06.278Z,24.70
2023-05-05T11:03:03.835Z,24.60
2023-05-05T11:04:06.276Z,24.60
2023-05-05T11:05:03.874Z,24.60
2023-05-05T11:06:06.076Z,24.70
2023-05-05T11:07:03.612Z,24.70
2023-05-05T11:08:05.787Z,24.70
2023-05-05T11:09:05.831Z,24.70
2023-05-05T11:10:03.310Z,24.70
2023-05-05T11:11:09.020Z,24.70
2023-05-05T11:12:06.014Z,24.70
2023-05-05T11:13:06.107Z,24.60
2023-05-05T11:14:06.293Z,24.60
2023-05-05T11:15:03.851Z,24.60
2023-05-05T11:16:08.610Z,24.60
2023-05-05T11:17:05.693Z,24.50
2023-05-05T11:18:05.970Z,24.50
2023-05-05T11:20:06.290Z,24.50
2023-05-05T11:21:05.809Z,24.50
2023-05-05T11:22:03.220Z,24.50
2023-05-05T11:23:03.873Z,24.40
2023-05-05T11:24:05.856Z,24.40
2023-05-05T11:25:03.349Z,24.40
2023-05-05T11:26:06.429Z,24.30
2023-05-05T11:27:03.949Z,24.30
2023-05-05T11:28:06.098Z,24.30
2023-05-05T11:29:06.055Z,24.40
2023-05-05T11:30:03.501Z,24.30
2023-05-05T11:31:09.169Z,24.40
2023-05-05T11:33:03.438Z,24.50
2023-05-05T11:34:09.133Z,24.50
2023-05-05T11:35:06.314Z,24.40
2023-05-05T11:36:06.341Z,24.50
2023-05-05T11:38:03.420Z,24.50
2023-05-05T11:39:04.016Z,24.50
2023-05-05T11:40:06.147Z,24.50
2023-05-05T11:41:04.074Z,24.50
2023-05-05T11:42:08.230Z,24.50
2023-05-05T11:44:04.165Z,24.50
2023-05-05T11:45:06.327Z,24.50
2023-05-05T11:46:06.409Z,24.50
2023-05-05T11:47:06.636Z,24.50
2023-05-05T11:48:07.032Z,24.60
2023-05-05T11:50:03.880Z,24.60
2023-05-05T11:51:03.648Z,24.60
2023-05-05T11:52:03.233Z,24.60
2023-05-05T11:53:06.399Z,24.60
2023-05-05T11:54:03.926Z,24.60
2023-05-05T11:55:06.150Z,24.70
2023-05-05T11:56:03.641Z,24.70
2023-05-05T11:57:05.888Z,24.70
2023-05-05T11:58:05.878Z,24.70
2023-05-05T11:59:03.374Z,24.70
2023-05-05T12:00:04.020Z,24.60
2023-05-05T12:01:03.721Z,24.70
2023-05-05T12:02:03.374Z,24.70
2023-05-05T12:03:04.124Z,24.70
2023-05-05T12:04:04.094Z,24.60
2023-05-05T12:05:06.471Z,24.60
2023-05-05T12:06:03.925Z,24.70
2023-05-05T12:07:03.465Z,24.60
2023-05-05T12:08:04.067Z,24.60
2023-05-05T12:09:03.712Z,24.60
2023-05-05T12:10:03.336Z,24.60
2023-05-05T12:11:03.913Z,24.50
2023-05-05T12:12:03.580Z,24.50
2023-05-05T12:13:03.358Z,24.50
2023-05-05T12:14:04.095Z,24.50
2023-05-05T12:15:06.345Z,24.40
2023-05-05T12:16:06.425Z,24.40
2023-05-05T12:17:06.702Z,24.40
2023-05-05T12:19:05.779Z,24.40
2023-05-05T12:20:05.898Z,24.30
2023-05-05T12:21:06.229Z,24.40
2023-05-05T12:22:03.827Z,24.30
2023-05-05T12:23:03.373Z,24.40
2023-05-05T12:24:03.916Z,24.40
2023-05-05T12:25:06.101Z,24.50
2023-05-05T12:26:06.092Z,24.50
2023-05-05T12:27:06.150Z,24.50
2023-05-05T12:28:03.548Z,24.50
2023-05-05T12:29:06.776Z,24.50
2023-05-05T12:30:05.907Z,24.50
2023-05-05T12:31:06.394Z,24.50
2023-05-05T12:32:04.177Z,24.50
2023-05-05T12:33:04.089Z,24.50
2023-05-05T12:34:06.434Z,24.50
2023-05-05T12:35:11.569Z,24.50
2023-05-05T12:36:04.025Z,24.50
2023-05-05T12:37:06.120Z,24.40
2023-05-05T12:38:03.568Z,24.40
2023-05-05T12:39:05.758Z,24.30
2023-05-05T12:40:06.252Z,24.30
2023-05-05T12:41:05.940Z,24.30
2023-05-05T12:42:03.468Z,24.30
2023-05-05T12:43:06.699Z,24.30
2023-05-05T12:45:03.678Z,24.20
2023-05-05T12:47:03.224Z,24.20
2023-05-05T12:48:03.934Z,24.10
2023-05-05T12:50:05.797Z,24.00
2023-05-05T12:51:03.538Z,24.00
2023-05-05T12:52:04.039Z,24.00
2023-05-05T12:53:06.215Z,24.00
2023-05-05T12:54:03.750Z,24.00
2023-05-05T12:55:06.436Z,23.90
2023-05-05T12:56:05.765Z,23.90
2023-05-05T12:57:05.753Z,23.90
2023-05-05T12:58:03.241Z,23.90
2023-05-05T12:59:06.474Z,23.90
2023-05-05T13:00:04.006Z,23.90
2023-05-05T13:01:06.258Z,23.90
2023-05-05T13:02:06.374Z,23.90
2023-05-05T13:03:06.581Z,24.00
2023-05-05T13:04:05.884Z,24.00
2023-05-05T13:05:06.862Z,24.10
2023-05-05T13:06:03.768Z,24.00
2023-05-05T13:07:05.918Z,24.10
2023-05-05T13:08:05.936Z,24.10
2023-05-05T13:09:03.436Z,24.10
2023-05-05T13:10:06.683Z,24.20
2023-05-05T13:12:09.001Z,24.20
2023-05-05T13:13:06.048Z,24.20
2023-05-05T13:14:03.701Z,24.20
2023-05-05T13:15:03.321Z,24.20
2023-05-05T13:16:06.453Z,24.10
2023-05-05T13:17:04.075Z,24.20
2023-05-05T13:18:06.414Z,24.10
2023-05-05T13:19:04.112Z,24.20
2023-05-05T13:20:03.749Z,24.10
2023-05-05T13:22:06.492Z,24.00
2023-05-05T13:23:08.982Z,24.10
2023-05-05T13:25:03.281Z,24.10
2023-05-05T13:26:03.930Z,24.00
2023-05-05T13:27:03.479Z,24.10
2023-05-05T13:28:06.706Z,24.10
2023-05-05T13:30:03.874Z,24.10
2023-05-05T13:32:04.079Z,24.20
2023-05-05T13:33:08.897Z,24.20
2023-05-05T13:34:03.641Z,24.20
2023-05-05T13:35:03.191Z,24.20
2023-05-05T13:36:03.893Z,24.20
2023-05-05T13:37:06.051Z,24.20
2023-05-05T13:38:03.812Z,24.20
2023-05-05T13:39:06.014Z,24.20
2023-05-05T13:40:03.574Z,24.20
2023-05-05T13:41:03.243Z,24.20
2023-05-05T13:42:09.050Z,24.20
2023-05-05T13:43:06.094Z,24.10
2023-05-05T13:44:03.606Z,24.10
2023-05-05T13:45:03.506Z,24.10
2023-05-05T13:46:18.990Z,24.10
2023-05-05T13:48:06.753Z,24.00
2023-05-05T13:49:13.640Z,24.00
2023-05-05T13:50:09.337Z,24.00
2023-05-05T13:51:03.754Z,24.00
2023-05-05T13:53:04.031Z,24.00
2023-05-05T13:54:06.151Z,24.00
2023-05-05T13:55:06.190Z,24.00